sensor_id;sensor_type;location;lat;lon;timestamp;temperature;humidity
48666;DHT22;34452;50.796;4.994;2022-10-31T00:00:24;14.10;99.90
48666;DHT22;34452;50.796;4.994;2022-10-31T00:02:49;14.00;99.90
48666;DHT22;34452;50.796;4.994;2022-10-31T00:05:15;14.00;99.90
48666;DHT22;34452;50.796;4.994;2022-10-31T00:07:41;14.00;99.90
48666;DHT22;34452;50.796;4.994;2022-10-31T00:10:07;14.00;99.90
48666;DHT22;34452;50.796;4.994;2022-10-31T00:12:33;14.10;99.90
48666;DHT22;34452;50.796;4.994;2022-10-31T00:14:59;14.10;99.90
48666;DHT22;34452;50.796;4.994;2022-10-31T00:17:24;14.00;99.90
48666;DHT22;34452;50.796;4.994;2022-10-31T00:19:50;14.00;99.90
48666;DHT22;34452;50.796;4.994;2022-10-31T00:22:15;14.00;99.90
48666;DHT22;34452;50.796;4.994;2022-10-31T00:24:41;14.00;99.90
48666;DHT22;34452;50.796;4.994;2022-10-31T00:27:07;14.00;99.90
48666;DHT22;34452;50.796;4.994;2022-10-31T00:29:33;13.90;99.90
48666;DHT22;34452;50.796;4.994;2022-10-31T00:31:58;13.90;99.90
48666;DHT22;34452;50.796;4.994;2022-10-31T00:34:24;13.90;99.90
48666;DHT22;34452;50.796;4.994;2022-10-31T00:36:50;14.00;99.90
48666;DHT22;34452;50.796;4.994;2022-10-31T00:39:15;14.00;99.90
48666;DHT22;34452;50.796;4.994;2022-10-31T00:41:41;14.00;99.90
48666;DHT22;34452;50.796;4.994;2022-10-31T00:44:07;13.90;99.90
48666;DHT22;34452;50.796;4.994;2022-10-31T00:46:32;13.90;99.90
48666;DHT22;34452;50.796;4.994;2022-10-31T00:48:58;13.80;99.90
48666;DHT22;34452;50.796;4.994;2022-10-31T00:51:24;13.80;99.90
48666;DHT22;34452;50.796;4.994;2022-10-31T00:53:49;13.90;99.90
48666;DHT22;34452;50.796;4.994;2022-10-31T00:56:15;13.80;99.90
48666;DHT22;34452;50.796;4.994;2022-10-31T00:58:41;13.80;99.90
48666;DHT22;34452;50.796;4.994;2022-10-31T01:01:06;13.80;99.90
48666;DHT22;34452;50.796;4.994;2022-10-31T01:03:33;13.80;99.90
48666;DHT22;34452;50.796;4.994;2022-10-31T01:06:05;13.80;99.90
48666;DHT22;34452;50.796;4.994;2022-10-31T01:08:31;13.70;99.90
48666;DHT22;34452;50.796;4.994;2022-10-31T01:11:17;13.70;99.90
48666;DHT22;34452;50.796;4.994;2022-10-31T01:13:43;13.70;99.90
48666;DHT22;34452;50.796;4.994;2022-10-31T01:16:12;13.60;99.90
48666;DHT22;34452;50.796;4.994;2022-10-31T01:18:38;13.60;99.90
48666;DHT22;34452;50.796;4.994;2022-10-31T01:21:10;13.70;99.90
48666;DHT22;34452;50.796;4.994;2022-10-31T01:23:36;13.70;99.90
48666;DHT22;34452;50.796;4.994;2022-10-31T01:26:10;13.70;99.90
48666;DHT22;34452;50.796;4.994;2022-10-31T01:28:38;13.60;99.90
48666;DHT22;34452;50.796;4.994;2022-10-31T01:31:08;13.50;99.90
48666;DHT22;34452;50.796;4.994;2022-10-31T01:33:34;13.50;99.90
48666;DHT22;34452;50.796;4.994;2022-10-31T01:36:01;13.50;99.90
48666;DHT22;34452;50.796;4.994;2022-10-31T01:38:26;13.50;99.90
48666;DHT22;34452;50.796;4.994;2022-10-31T01:40:52;13.50;99.90
48666;DHT22;34452;50.796;4.994;2022-10-31T01:43:18;13.50;99.90
48666;DHT22;34452;50.796;4.994;2022-10-31T01:45:49;13.50;99.90
48666;DHT22;34452;50.796;4.994;2022-10-31T01:48:19;13.60;99.90
48666;DHT22;34452;50.796;4.994;2022-10-31T01:50:47;13.50;99.90
48666;DHT22;34452;50.796;4.994;2022-10-31T01:53:14;13.40;99.90
48666;DHT22;34452;50.796;4.994;2022-10-31T01:55:44;13.40;99.90
48666;DHT22;34452;50.796;4.994;2022-10-31T01:58:19;13.40;99.90
48666;DHT22;34452;50.796;4.994;2022-10-31T02:00:48;13.40;99.90
48666;DHT22;34452;50.796;4.994;2022-10-31T02:03:15;13.40;99.90
48666;DHT22;34452;50.796;4.994;2022-10-31T02:05:42;13.40;99.90
48666;DHT22;34452;50.796;4.994;2022-10-31T02:08:34;13.50;99.90
48666;DHT22;34452;50.796;4.994;2022-10-31T02:11:00;13.50;99.90
48666;DHT22;34452;50.796;4.994;2022-10-31T02:13:28;13.40;99.90
48666;DHT22;34452;50.796;4.994;2022-10-31T02:15:57;13.40;99.90
48666;DHT22;34452;50.796;4.994;2022-10-31T02:18:26;13.30;99.90
48666;DHT22;34452;50.796;4.994;2022-10-31T02:26:59;13.10;99.90
48666;DHT22;34452;50.796;4.994;2022-10-31T02:32:43;13.10;99.90
48666;DHT22;34452;50.796;4.994;2022-10-31T02:38:02;13.00;99.90
48666;DHT22;34452;50.796;4.994;2022-10-31T02:49:07;13.00;99.90
48666;DHT22;34452;50.796;4.994;2022-10-31T02:51:35;13.00;99.90
48666;DHT22;34452;50.796;4.994;2022-10-31T02:54:01;12.90;99.90
48666;DHT22;34452;50.796;4.994;2022-10-31T02:56:27;12.90;99.90
48666;DHT22;34452;50.796;4.994;2022-10-31T02:58:59;12.90;99.90
48666;DHT22;34452;50.796;4.994;2022-10-31T03:01:44;12.90;99.90
48666;DHT22;34452;50.796;4.994;2022-10-31T03:07:20;12.80;99.90
48666;DHT22;34452;50.796;4.994;2022-10-31T03:12:59;12.70;99.90
48666;DHT22;34452;50.796;4.994;2022-10-31T03:15:30;12.70;99.90
48666;DHT22;34452;50.796;4.994;2022-10-31T03:18:15;12.70;99.90
48666;DHT22;34452;50.796;4.994;2022-10-31T03:20:48;12.60;99.90
48666;DHT22;34452;50.796;4.994;2022-10-31T03:23:17;12.50;99.90
48666;DHT22;34452;50.796;4.994;2022-10-31T03:25:45;12.50;99.90
48666;DHT22;34452;50.796;4.994;2022-10-31T03:28:12;12.50;99.90
48666;DHT22;34452;50.796;4.994;2022-10-31T03:30:42;12.50;99.90
48666;DHT22;34452;50.796;4.994;2022-10-31T03:33:19;12.50;99.90
48666;DHT22;34452;50.796;4.994;2022-10-31T03:35:48;12.40;99.90
48666;DHT22;34452;50.796;4.994;2022-10-31T03:38:16;12.40;99.90
48666;DHT22;34452;50.796;4.994;2022-10-31T03:40:45;12.50;99.90
48666;DHT22;34452;50.796;4.994;2022-10-31T03:43:16;12.40;99.90
48666;DHT22;34452;50.796;4.994;2022-10-31T03:45:46;12.40;99.90
48666;DHT22;34452;50.796;4.994;2022-10-31T03:48:16;12.30;99.90
48666;DHT22;34452;50.796;4.994;2022-10-31T03:53:26;12.20;99.90
48666;DHT22;34452;50.796;4.994;2022-10-31T03:56:07;12.10;99.90
48666;DHT22;34452;50.796;4.994;2022-10-31T03:59:05;12.00;99.90
48666;DHT22;34452;50.796;4.994;2022-10-31T04:01:34;11.90;99.90
48666;DHT22;34452;50.796;4.994;2022-10-31T04:04:02;12.00;99.90
48666;DHT22;34452;50.796;4.994;2022-10-31T04:06:30;12.10;99.90
48666;DHT22;34452;50.796;4.994;2022-10-31T04:08:59;12.10;99.90
48666;DHT22;34452;50.796;4.994;2022-10-31T04:11:30;12.10;99.90
48666;DHT22;34452;50.796;4.994;2022-10-31T04:13:57;12.20;99.90
48666;DHT22;34452;50.796;4.994;2022-10-31T04:16:25;12.20;99.90
48666;DHT22;34452;50.796;4.994;2022-10-31T04:18:51;12.20;99.90
48666;DHT22;34452;50.796;4.994;2022-10-31T04:21:17;12.20;99.90
48666;DHT22;34452;50.796;4.994;2022-10-31T04:23:43;12.10;99.90
48666;DHT22;34452;50.796;4.994;2022-10-31T04:26:11;12.10;99.90
48666;DHT22;34452;50.796;4.994;2022-10-31T04:28:37;12.10;99.90
48666;DHT22;34452;50.796;4.994;2022-10-31T04:31:03;12.10;99.90
48666;DHT22;34452;50.796;4.994;2022-10-31T04:33:29;12.00;99.90
48666;DHT22;34452;50.796;4.994;2022-10-31T04:35:54;12.10;99.90
48666;DHT22;34452;50.796;4.994;2022-10-31T04:38:20;12.00;99.90
48666;DHT22;34452;50.796;4.994;2022-10-31T04:40:46;12.00;99.90
48666;DHT22;34452;50.796;4.994;2022-10-31T04:43:11;11.90;99.90
48666;DHT22;34452;50.796;4.994;2022-10-31T04:45:37;12.00;99.90
48666;DHT22;34452;50.796;4.994;2022-10-31T04:48:03;12.00;99.90
48666;DHT22;34452;50.796;4.994;2022-10-31T04:50:29;12.00;99.90
48666;DHT22;34452;50.796;4.994;2022-10-31T04:52:54;12.00;99.90
48666;DHT22;34452;50.796;4.994;2022-10-31T04:55:20;12.00;99.90
48666;DHT22;34452;50.796;4.994;2022-10-31T04:57:47;12.00;99.90
48666;DHT22;34452;50.796;4.994;2022-10-31T05:00:15;12.00;99.90
48666;DHT22;34452;50.796;4.994;2022-10-31T05:02:45;11.90;99.90
48666;DHT22;34452;50.796;4.994;2022-10-31T05:05:13;11.90;99.90
48666;DHT22;34452;50.796;4.994;2022-10-31T05:07:41;11.90;99.90
48666;DHT22;34452;50.796;4.994;2022-10-31T05:10:09;11.80;99.90
48666;DHT22;34452;50.796;4.994;2022-10-31T05:12:35;11.90;99.90
48666;DHT22;34452;50.796;4.994;2022-10-31T05:15:01;12.00;99.90
48666;DHT22;34452;50.796;4.994;2022-10-31T05:17:26;12.00;99.90
48666;DHT22;34452;50.796;4.994;2022-10-31T05:19:52;12.00;99.90
48666;DHT22;34452;50.796;4.994;2022-10-31T05:22:18;12.00;99.90
48666;DHT22;34452;50.796;4.994;2022-10-31T05:24:43;12.00;99.90
48666;DHT22;34452;50.796;4.994;2022-10-31T05:27:09;12.00;99.90
48666;DHT22;34452;50.796;4.994;2022-10-31T05:29:35;12.00;99.90
48666;DHT22;34452;50.796;4.994;2022-10-31T05:32:00;12.00;99.90
48666;DHT22;34452;50.796;4.994;2022-10-31T05:34:26;12.00;99.90
48666;DHT22;34452;50.796;4.994;2022-10-31T05:36:52;12.00;99.90
48666;DHT22;34452;50.796;4.994;2022-10-31T05:39:17;12.00;99.90
48666;DHT22;34452;50.796;4.994;2022-10-31T05:41:43;12.00;99.90
48666;DHT22;34452;50.796;4.994;2022-10-31T05:44:09;12.00;99.90
48666;DHT22;34452;50.796;4.994;2022-10-31T05:46:34;12.00;99.90
48666;DHT22;34452;50.796;4.994;2022-10-31T05:49:00;12.00;99.90
48666;DHT22;34452;50.796;4.994;2022-10-31T05:51:26;12.00;99.90
48666;DHT22;34452;50.796;4.994;2022-10-31T05:53:51;11.90;99.90
48666;DHT22;34452;50.796;4.994;2022-10-31T05:56:17;11.90;99.90
48666;DHT22;34452;50.796;4.994;2022-10-31T05:58:42;11.70;99.90
48666;DHT22;34452;50.796;4.994;2022-10-31T06:01:08;11.60;99.90
48666;DHT22;34452;50.796;4.994;2022-10-31T06:03:34;11.60;99.90
48666;DHT22;34452;50.796;4.994;2022-10-31T06:05:59;11.60;99.90
48666;DHT22;34452;50.796;4.994;2022-10-31T06:08:25;11.60;99.90
48666;DHT22;34452;50.796;4.994;2022-10-31T06:10:51;11.60;99.90
48666;DHT22;34452;50.796;4.994;2022-10-31T06:13:19;11.60;99.90
48666;DHT22;34452;50.796;4.994;2022-10-31T06:15:44;11.50;99.90
48666;DHT22;34452;50.796;4.994;2022-10-31T06:18:10;11.60;99.90
48666;DHT22;34452;50.796;4.994;2022-10-31T06:20:36;11.60;99.90
48666;DHT22;34452;50.796;4.994;2022-10-31T06:23:02;11.60;99.90
48666;DHT22;34452;50.796;4.994;2022-10-31T06:25:28;11.70;99.90
48666;DHT22;34452;50.796;4.994;2022-10-31T06:27:54;11.70;99.90
48666;DHT22;34452;50.796;4.994;2022-10-31T06:30:20;11.70;99.90
48666;DHT22;34452;50.796;4.994;2022-10-31T06:32:46;11.70;99.90
48666;DHT22;34452;50.796;4.994;2022-10-31T06:35:12;11.70;99.90
48666;DHT22;34452;50.796;4.994;2022-10-31T06:37:38;11.60;99.90
48666;DHT22;34452;50.796;4.994;2022-10-31T06:40:04;11.60;99.90
48666;DHT22;34452;50.796;4.994;2022-10-31T06:42:30;11.60;99.90
48666;DHT22;34452;50.796;4.994;2022-10-31T06:44:56;11.60;99.90
48666;DHT22;34452;50.796;4.994;2022-10-31T06:47:21;11.60;99.90
48666;DHT22;34452;50.796;4.994;2022-10-31T06:49:47;11.60;99.90
48666;DHT22;34452;50.796;4.994;2022-10-31T06:52:13;11.50;99.90
48666;DHT22;34452;50.796;4.994;2022-10-31T06:54:38;11.50;99.90
48666;DHT22;34452;50.796;4.994;2022-10-31T06:57:04;11.50;99.90
48666;DHT22;34452;50.796;4.994;2022-10-31T06:59:30;11.50;99.90
48666;DHT22;34452;50.796;4.994;2022-10-31T07:01:57;11.50;99.90
48666;DHT22;34452;50.796;4.994;2022-10-31T07:04:23;11.50;99.90
48666;DHT22;34452;50.796;4.994;2022-10-31T07:06:52;11.50;99.90
48666;DHT22;34452;50.796;4.994;2022-10-31T07:09:18;11.60;99.90
48666;DHT22;34452;50.796;4.994;2022-10-31T07:11:44;11.60;99.90
48666;DHT22;34452;50.796;4.994;2022-10-31T07:14:09;11.50;99.90
48666;DHT22;34452;50.796;4.994;2022-10-31T07:16:35;11.60;99.90
48666;DHT22;34452;50.796;4.994;2022-10-31T07:19:01;11.60;99.90
48666;DHT22;34452;50.796;4.994;2022-10-31T07:21:26;11.60;99.90
48666;DHT22;34452;50.796;4.994;2022-10-31T07:23:52;11.60;99.90
48666;DHT22;34452;50.796;4.994;2022-10-31T07:26:18;11.60;99.90
48666;DHT22;34452;50.796;4.994;2022-10-31T07:28:45;11.60;99.90
48666;DHT22;34452;50.796;4.994;2022-10-31T07:31:10;11.60;99.90
48666;DHT22;34452;50.796;4.994;2022-10-31T07:33:36;11.70;99.90
48666;DHT22;34452;50.796;4.994;2022-10-31T07:36:02;11.80;99.90
48666;DHT22;34452;50.796;4.994;2022-10-31T07:38:28;11.90;99.90
48666;DHT22;34452;50.796;4.994;2022-10-31T07:40:53;12.00;99.90
48666;DHT22;34452;50.796;4.994;2022-10-31T07:43:20;12.00;99.90
48666;DHT22;34452;50.796;4.994;2022-10-31T07:45:54;12.00;99.90
48666;DHT22;34452;50.796;4.994;2022-10-31T07:48:20;12.00;99.90
48666;DHT22;34452;50.796;4.994;2022-10-31T07:50:46;12.00;99.90
48666;DHT22;34452;50.796;4.994;2022-10-31T07:53:13;12.00;99.90
48666;DHT22;34452;50.796;4.994;2022-10-31T07:55:39;12.10;99.90
48666;DHT22;34452;50.796;4.994;2022-10-31T07:58:07;12.20;99.90
48666;DHT22;34452;50.796;4.994;2022-10-31T08:00:34;12.20;99.90
48666;DHT22;34452;50.796;4.994;2022-10-31T08:03:05;12.20;99.90
48666;DHT22;34452;50.796;4.994;2022-10-31T08:05:32;12.20;99.90
48666;DHT22;34452;50.796;4.994;2022-10-31T08:07:58;12.30;99.90
48666;DHT22;34452;50.796;4.994;2022-10-31T08:10:24;12.40;99.90
48666;DHT22;34452;50.796;4.994;2022-10-31T08:13:04;12.50;99.90
48666;DHT22;34452;50.796;4.994;2022-10-31T08:15:30;12.50;99.90
48666;DHT22;34452;50.796;4.994;2022-10-31T08:17:56;12.60;99.90
48666;DHT22;34452;50.796;4.994;2022-10-31T08:20:22;12.70;99.90
48666;DHT22;34452;50.796;4.994;2022-10-31T08:23:01;12.80;99.90
48666;DHT22;34452;50.796;4.994;2022-10-31T08:25:30;12.90;99.90
48666;DHT22;34452;50.796;4.994;2022-10-31T08:27:56;13.00;99.90
48666;DHT22;34452;50.796;4.994;2022-10-31T08:30:26;13.10;99.90
48666;DHT22;34452;50.796;4.994;2022-10-31T08:35:25;13.20;99.90
48666;DHT22;34452;50.796;4.994;2022-10-31T08:37:55;13.20;99.90
48666;DHT22;34452;50.796;4.994;2022-10-31T08:40:21;13.20;99.90
48666;DHT22;34452;50.796;4.994;2022-10-31T08:42:47;13.30;99.90
48666;DHT22;34452;50.796;4.994;2022-10-31T08:45:13;13.30;99.90
48666;DHT22;34452;50.796;4.994;2022-10-31T08:47:39;13.40;99.90
48666;DHT22;34452;50.796;4.994;2022-10-31T08:50:05;13.40;99.90
48666;DHT22;34452;50.796;4.994;2022-10-31T08:52:30;13.60;99.90
48666;DHT22;34452;50.796;4.994;2022-10-31T08:54:56;13.60;99.90
48666;DHT22;34452;50.796;4.994;2022-10-31T08:57:22;13.70;99.90
48666;DHT22;34452;50.796;4.994;2022-10-31T08:59:47;13.80;99.90
48666;DHT22;34452;50.796;4.994;2022-10-31T09:02:13;13.90;99.90
48666;DHT22;34452;50.796;4.994;2022-10-31T09:04:39;13.90;99.90
48666;DHT22;34452;50.796;4.994;2022-10-31T09:07:05;14.00;99.90
48666;DHT22;34452;50.796;4.994;2022-10-31T09:09:30;14.00;99.90
48666;DHT22;34452;50.796;4.994;2022-10-31T09:11:56;14.10;99.90
48666;DHT22;34452;50.796;4.994;2022-10-31T09:14:22;14.20;99.90
48666;DHT22;34452;50.796;4.994;2022-10-31T09:16:47;14.30;99.90
48666;DHT22;34452;50.796;4.994;2022-10-31T09:19:13;14.30;99.90
48666;DHT22;34452;50.796;4.994;2022-10-31T09:21:38;14.40;99.90
48666;DHT22;34452;50.796;4.994;2022-10-31T09:24:04;14.40;99.90
48666;DHT22;34452;50.796;4.994;2022-10-31T09:26:30;14.50;99.90
48666;DHT22;34452;50.796;4.994;2022-10-31T09:28:56;14.50;99.90
48666;DHT22;34452;50.796;4.994;2022-10-31T09:31:23;14.50;99.90
48666;DHT22;34452;50.796;4.994;2022-10-31T09:33:49;14.60;99.90
48666;DHT22;34452;50.796;4.994;2022-10-31T09:36:15;14.60;99.90
48666;DHT22;34452;50.796;4.994;2022-10-31T09:38:40;14.60;99.90
48666;DHT22;34452;50.796;4.994;2022-10-31T09:52:29;14.70;99.90
48666;DHT22;34452;50.796;4.994;2022-10-31T09:55:08;14.70;99.90
48666;DHT22;34452;50.796;4.994;2022-10-31T09:57:38;14.70;99.90
48666;DHT22;34452;50.796;4.994;2022-10-31T10:00:05;14.70;99.90
48666;DHT22;34452;50.796;4.994;2022-10-31T10:02:40;14.80;99.90
48666;DHT22;34452;50.796;4.994;2022-10-31T10:05:34;14.90;99.90
48666;DHT22;34452;50.796;4.994;2022-10-31T10:08:11;14.90;99.90
48666;DHT22;34452;50.796;4.994;2022-10-31T10:26:43;15.40;99.90
48666;DHT22;34452;50.796;4.994;2022-10-31T10:29:29;15.40;99.90
48666;DHT22;34452;50.796;4.994;2022-10-31T10:32:01;15.50;99.90
48666;DHT22;34452;50.796;4.994;2022-10-31T10:34:44;15.50;99.90
48666;DHT22;34452;50.796;4.994;2022-10-31T10:37:26;15.60;99.90
48666;DHT22;34452;50.796;4.994;2022-10-31T10:40:00;15.70;99.90
48666;DHT22;34452;50.796;4.994;2022-10-31T10:42:27;15.70;99.90
48666;DHT22;34452;50.796;4.994;2022-10-31T10:45:17;15.80;99.90
48666;DHT22;34452;50.796;4.994;2022-10-31T10:51:20;15.90;99.90
48666;DHT22;34452;50.796;4.994;2022-10-31T10:56:41;16.00;99.90
48666;DHT22;34452;50.796;4.994;2022-10-31T10:59:13;16.10;99.90
48666;DHT22;34452;50.796;4.994;2022-10-31T11:01:41;16.20;99.90
48666;DHT22;34452;50.796;4.994;2022-10-31T11:09:31;16.30;99.90
48666;DHT22;34452;50.796;4.994;2022-10-31T11:11:58;16.30;99.90
48666;DHT22;34452;50.796;4.994;2022-10-31T11:14:24;16.40;99.90
48666;DHT22;34452;50.796;4.994;2022-10-31T11:17:17;16.40;99.90
48666;DHT22;34452;50.796;4.994;2022-10-31T11:19:36;16.50;99.90
48666;DHT22;34452;50.796;4.994;2022-10-31T11:22:07;16.50;99.90
48666;DHT22;34452;50.796;4.994;2022-10-31T11:24:39;16.60;99.90
48666;DHT22;34452;50.796;4.994;2022-10-31T11:27:20;16.60;99.90
48666;DHT22;34452;50.796;4.994;2022-10-31T11:29:46;16.70;99.90
48666;DHT22;34452;50.796;4.994;2022-10-31T11:32:30;16.90;99.90
48666;DHT22;34452;50.796;4.994;2022-10-31T11:34:59;17.00;99.90
48666;DHT22;34452;50.796;4.994;2022-10-31T11:37:29;17.10;99.90
48666;DHT22;34452;50.796;4.994;2022-10-31T11:40:02;17.10;99.90
48666;DHT22;34452;50.796;4.994;2022-10-31T11:42:40;17.10;99.90
48666;DHT22;34452;50.796;4.994;2022-10-31T11:45:17;17.10;99.90
48666;DHT22;34452;50.796;4.994;2022-10-31T11:47:50;17.10;99.90
48666;DHT22;34452;50.796;4.994;2022-10-31T11:50:28;17.10;99.90
48666;DHT22;34452;50.796;4.994;2022-10-31T11:52:55;17.10;99.90
48666;DHT22;34452;50.796;4.994;2022-10-31T11:55:35;17.10;99.90
48666;DHT22;34452;50.796;4.994;2022-10-31T11:58:01;17.20;99.90
48666;DHT22;34452;50.796;4.994;2022-10-31T12:00:33;17.20;99.90
48666;DHT22;34452;50.796;4.994;2022-10-31T12:05:44;17.10;99.90
48666;DHT22;34452;50.796;4.994;2022-10-31T12:08:13;17.00;99.90
48666;DHT22;34452;50.796;4.994;2022-10-31T12:11:06;17.00;99.90
48666;DHT22;34452;50.796;4.994;2022-10-31T12:13:37;17.00;99.90
48666;DHT22;34452;50.796;4.994;2022-10-31T12:16:16;17.00;99.90
48666;DHT22;34452;50.796;4.994;2022-10-31T12:18:52;17.00;99.90
48666;DHT22;34452;50.796;4.994;2022-10-31T12:24:13;17.00;99.90
48666;DHT22;34452;50.796;4.994;2022-10-31T12:27:02;17.00;99.90
48666;DHT22;34452;50.796;4.994;2022-10-31T12:43:56;17.00;99.90
48666;DHT22;34452;50.796;4.994;2022-10-31T12:52:17;16.90;99.90
48666;DHT22;34452;50.796;4.994;2022-10-31T12:54:50;16.90;99.90
48666;DHT22;34452;50.796;4.994;2022-10-31T13:00:04;16.90;99.90
48666;DHT22;34452;50.796;4.994;2022-10-31T13:05:30;16.90;99.90
48666;DHT22;34452;50.796;4.994;2022-10-31T13:08:05;17.00;99.90
48666;DHT22;34452;50.796;4.994;2022-10-31T13:16:11;17.20;99.90
48666;DHT22;34452;50.796;4.994;2022-10-31T13:18:46;17.30;99.90
48666;DHT22;34452;50.796;4.994;2022-10-31T13:21:21;17.30;99.90
48666;DHT22;34452;50.796;4.994;2022-10-31T13:23:50;17.40;99.90
48666;DHT22;34452;50.796;4.994;2022-10-31T13:26:35;17.40;99.90
48666;DHT22;34452;50.796;4.994;2022-10-31T13:29:23;17.50;99.90
48666;DHT22;34452;50.796;4.994;2022-10-31T13:31:50;17.50;99.90
48666;DHT22;34452;50.796;4.994;2022-10-31T13:34:46;17.60;99.90
48666;DHT22;34452;50.796;4.994;2022-10-31T13:37:34;17.70;99.90
48666;DHT22;34452;50.796;4.994;2022-10-31T13:40:48;17.70;99.90
48666;DHT22;34452;50.796;4.994;2022-10-31T13:43:33;17.80;99.90
48666;DHT22;34452;50.796;4.994;2022-10-31T13:46:00;17.90;99.90
48666;DHT22;34452;50.796;4.994;2022-10-31T13:48:40;18.00;99.90
48666;DHT22;34452;50.796;4.994;2022-10-31T13:51:09;18.00;99.90
48666;DHT22;34452;50.796;4.994;2022-10-31T13:56:29;18.00;99.90
48666;DHT22;34452;50.796;4.994;2022-10-31T14:01:27;18.10;99.90
48666;DHT22;34452;50.796;4.994;2022-10-31T14:12:12;18.00;99.90
48666;DHT22;34452;50.796;4.994;2022-10-31T14:14:48;18.00;99.90
48666;DHT22;34452;50.796;4.994;2022-10-31T14:17:20;18.00;99.90
48666;DHT22;34452;50.796;4.994;2022-10-31T14:22:38;18.10;99.90
48666;DHT22;34452;50.796;4.994;2022-10-31T14:25:33;18.10;99.90
48666;DHT22;34452;50.796;4.994;2022-10-31T14:28:02;18.10;99.90
48666;DHT22;34452;50.796;4.994;2022-10-31T14:30:29;18.10;99.90
48666;DHT22;34452;50.796;4.994;2022-10-31T14:32:59;18.10;99.90
48666;DHT22;34452;50.796;4.994;2022-10-31T14:35:43;18.00;99.90
48666;DHT22;34452;50.796;4.994;2022-10-31T14:38:27;18.00;99.90
48666;DHT22;34452;50.796;4.994;2022-10-31T14:49:22;18.00;99.90
48666;DHT22;34452;50.796;4.994;2022-10-31T14:51:51;18.00;99.90
48666;DHT22;34452;50.796;4.994;2022-10-31T14:54:30;18.00;99.90
48666;DHT22;34452;50.796;4.994;2022-10-31T14:57:27;18.00;99.90
48666;DHT22;34452;50.796;4.994;2022-10-31T14:59:55;18.00;99.90
48666;DHT22;34452;50.796;4.994;2022-10-31T15:02:38;18.00;99.90
48666;DHT22;34452;50.796;4.994;2022-10-31T15:05:10;18.00;99.90
48666;DHT22;34452;50.796;4.994;2022-10-31T15:07:36;18.00;99.90
48666;DHT22;34452;50.796;4.994;2022-10-31T15:10:19;17.90;99.90
48666;DHT22;34452;50.796;4.994;2022-10-31T15:12:45;18.00;99.90
48666;DHT22;34452;50.796;4.994;2022-10-31T15:15:12;18.10;99.90
48666;DHT22;34452;50.796;4.994;2022-10-31T15:17:44;18.10;99.90
48666;DHT22;34452;50.796;4.994;2022-10-31T15:20:21;18.00;99.90
48666;DHT22;34452;50.796;4.994;2022-10-31T15:22:49;18.00;99.90
48666;DHT22;34452;50.796;4.994;2022-10-31T15:25:16;18.00;99.90
48666;DHT22;34452;50.796;4.994;2022-10-31T15:27:43;17.90;99.90
48666;DHT22;34452;50.796;4.994;2022-10-31T15:30:18;17.90;99.90
48666;DHT22;34452;50.796;4.994;2022-10-31T15:32:45;17.90;99.90
48666;DHT22;34452;50.796;4.994;2022-10-31T15:35:23;17.80;99.90
48666;DHT22;34452;50.796;4.994;2022-10-31T15:37:52;17.70;99.90
48666;DHT22;34452;50.796;4.994;2022-10-31T15:40:20;17.60;99.90
48666;DHT22;34452;50.796;4.994;2022-10-31T15:43:00;17.60;99.90
48666;DHT22;34452;50.796;4.994;2022-10-31T15:45:30;17.50;99.90
48666;DHT22;34452;50.796;4.994;2022-10-31T15:48:01;17.40;99.90
48666;DHT22;34452;50.796;4.994;2022-10-31T15:52:57;17.50;99.90
48666;DHT22;34452;50.796;4.994;2022-10-31T15:55:28;17.40;99.90
48666;DHT22;34452;50.796;4.994;2022-10-31T15:58:03;17.40;99.90
48666;DHT22;34452;50.796;4.994;2022-10-31T16:00:31;17.30;99.90
48666;DHT22;34452;50.796;4.994;2022-10-31T16:03:04;17.30;99.90
48666;DHT22;34452;50.796;4.994;2022-10-31T16:06:01;17.20;99.90
48666;DHT22;34452;50.796;4.994;2022-10-31T16:10:57;17.10;99.90
48666;DHT22;34452;50.796;4.994;2022-10-31T16:13:32;17.00;99.90
48666;DHT22;34452;50.796;4.994;2022-10-31T16:16:04;16.90;99.90
48666;DHT22;34452;50.796;4.994;2022-10-31T16:18:37;16.90;99.90
48666;DHT22;34452;50.796;4.994;2022-10-31T16:21:04;16.80;99.90
48666;DHT22;34452;50.796;4.994;2022-10-31T16:23:30;16.80;99.90
48666;DHT22;34452;50.796;4.994;2022-10-31T16:25:56;16.80;99.90
48666;DHT22;34452;50.796;4.994;2022-10-31T16:28:24;16.70;99.90
48666;DHT22;34452;50.796;4.994;2022-10-31T16:30:55;16.70;99.90
48666;DHT22;34452;50.796;4.994;2022-10-31T16:33:28;16.60;99.90
48666;DHT22;34452;50.796;4.994;2022-10-31T16:35:58;16.60;99.90
48666;DHT22;34452;50.796;4.994;2022-10-31T16:38:24;16.50;99.90
48666;DHT22;34452;50.796;4.994;2022-10-31T16:40:51;16.40;99.90
48666;DHT22;34452;50.796;4.994;2022-10-31T16:43:18;16.30;99.90
48666;DHT22;34452;50.796;4.994;2022-10-31T16:45:47;16.30;99.90
48666;DHT22;34452;50.796;4.994;2022-10-31T16:48:15;16.30;99.90
48666;DHT22;34452;50.796;4.994;2022-10-31T16:50:44;16.30;99.90
48666;DHT22;34452;50.796;4.994;2022-10-31T16:53:12;16.30;99.90
48666;DHT22;34452;50.796;4.994;2022-10-31T16:58:27;16.20;99.90
48666;DHT22;34452;50.796;4.994;2022-10-31T17:00:55;16.10;99.90
48666;DHT22;34452;50.796;4.994;2022-10-31T17:03:21;16.10;99.90
48666;DHT22;34452;50.796;4.994;2022-10-31T17:05:47;16.10;99.90
48666;DHT22;34452;50.796;4.994;2022-10-31T17:08:13;16.10;99.90
48666;DHT22;34452;50.796;4.994;2022-10-31T17:10:40;16.10;99.90
48666;DHT22;34452;50.796;4.994;2022-10-31T17:13:10;16.00;99.90
48666;DHT22;34452;50.796;4.994;2022-10-31T17:15:44;16.00;99.90
48666;DHT22;34452;50.796;4.994;2022-10-31T17:18:15;16.00;99.90
48666;DHT22;34452;50.796;4.994;2022-10-31T17:20:42;16.00;99.90
48666;DHT22;34452;50.796;4.994;2022-10-31T17:23:12;15.90;99.90
48666;DHT22;34452;50.796;4.994;2022-10-31T17:25:39;15.90;99.90
48666;DHT22;34452;50.796;4.994;2022-10-31T17:28:05;15.80;99.90
48666;DHT22;34452;50.796;4.994;2022-10-31T17:30:31;15.70;99.90
48666;DHT22;34452;50.796;4.994;2022-10-31T17:32:58;15.60;99.90
48666;DHT22;34452;50.796;4.994;2022-10-31T17:35:23;15.50;99.90
48666;DHT22;34452;50.796;4.994;2022-10-31T17:37:49;15.50;99.90
48666;DHT22;34452;50.796;4.994;2022-10-31T17:40:19;15.50;99.90
48666;DHT22;34452;50.796;4.994;2022-10-31T17:42:52;15.50;99.90
48666;DHT22;34452;50.796;4.994;2022-10-31T17:45:19;15.40;99.90
48666;DHT22;34452;50.796;4.994;2022-10-31T17:47:49;15.40;99.90
48666;DHT22;34452;50.796;4.994;2022-10-31T17:50:22;15.40;99.90
48666;DHT22;34452;50.796;4.994;2022-10-31T17:52:49;15.40;99.90
48666;DHT22;34452;50.796;4.994;2022-10-31T17:55:15;15.50;99.90
48666;DHT22;34452;50.796;4.994;2022-10-31T17:57:41;15.50;99.90
48666;DHT22;34452;50.796;4.994;2022-10-31T18:00:10;15.50;99.90
48666;DHT22;34452;50.796;4.994;2022-10-31T18:02:37;15.50;99.90
48666;DHT22;34452;50.796;4.994;2022-10-31T18:05:04;15.50;99.90